• Join FlightAware (Why Join?)
  • Login
  • US Flag 
Trick or treat! (Boo!!) 
02:00PM EDT


 

Airport Tracker/Info


-or-


 

Live Flight TrackerFlight Track Log ✈ RPA3242 ✈ 17-May-2013 ✈ KPHL - KALB

Flight Track Log - Related Links

Times and Time Zones

All times are in EDT time to prevent confusion due to time zone crossing. See the RPA3242 flight status page for this flight to view local times or setup timezone preferences in your user account.

Time Position Orientation Groundspeed Altitude Reporting Facility
EDT Latitude Longitude Course Direction KTS MPH feet Rate Location/Type
09:29PM 39.8667 -75.2833 37° Northeast 162 186 800  Level Philadelphia TRACON
09:29PM 39.8333 -75.3167 218° Southwest 221 254 2,700 2,340 Climbing Philadelphia TRACON
09:30PM 39.7667 -75.3667 210° Southwest 260 299 5,300 2,820 Climbing Philadelphia TRACON
09:31PM 39.8090 -74.8281 105° East  Level FlightAware Approximate
09:31PM 39.7000 -75.3833 191° South 306 352 8,400  Level Philadelphia TRACON
09:32PM 39.7885 -74.6948 37° Northeast  Level FlightAware Approximate
09:32PM 39.6667 -75.2833 113° Southeast 334 384 10,900  Level Philadelphia TRACON
09:33PM 39.8744 -74.6090 37° Northeast  Level FlightAware Approximate
09:34PM 39.9637 -74.5363 37° Northeast  Level FlightAware Approximate
09:35PM 39.7292 -75.0006 74° East 371 427 12,000  Level New York Center
09:36PM 39.7586 -74.8756 73° East 371 427 12,000  Level New York Center
09:37PM 39.7856 -74.7581 73° East 371 427 12,000 1,380 Level New York Center
09:38PM 39.8600 -74.6542 47° Northeast 354 407 14,800 2,280 Climbing New York Center
09:39PM 39.9419 -74.5722 37° Northeast 352 405 16,700 1,620 Climbing New York Center
09:40PM 40.0086 -74.5053 38° Northeast 363 418 18,100 1,740 Climbing New York Center
09:41PM 40.1139 -74.4025 37° Northeast 379 436 20,200 1,860 Climbing New York Center
09:42PM 40.2000 -74.3144 38° Northeast 384 442 21,800 1,440 Climbing New York Center
09:43PM 40.2903 -74.2267 37° Northeast 395 455 23,100 1,080 Climbing New York Center
09:44PM 40.3881 -74.1553 29° Northeast 400 460 24,000 420 Climbing New York Center
09:45PM 40.4881 -74.0839 28° Northeast 406 467 24,000  Level New York Center
09:46PM 40.5858 -74.0119 29° Northeast 406 467 24,000  Level New York Center
09:48PM 40.7972 -73.8575 29° Northeast 409 471 24,000  Level Boston Center
09:49PM 40.8858 -73.7606 40° Northeast 409 471 24,000 -420 Level Boston Center
09:50PM 40.9883 -73.7325 12° North 377 434 23,200 -900 Descending Boston Center
09:51PM 41.0928 -73.7125 North 372 428 22,200 -1,020 Descending Boston Center
09:52PM 41.2286 -73.6875 North 372 428 21,000 -1,020 Descending Boston Center
09:53PM 41.3331 -73.6647 North 377 434 20,000 -1,020 Descending Boston Center
09:54PM 41.4311 -73.6500 North 372 428 19,000 -960 Descending Boston Center
09:55PM 41.5208 -73.6322 North 358 412 18,100 -900 Descending Boston Center
09:56PM 41.6317 -73.6122 North 351 404 17,200 -960 Descending Boston Center
09:57PM 41.7297 -73.5944 North 351 404 16,100 -960 Descending Boston Center
09:58PM 41.8361 -73.5769 North 351 404 15,100 -1,080 Descending Boston Center
09:59PM 41.9425 -73.5564 North 344 396 14,000 -1,080 Descending Boston Center
10:00PM 41.9928 -73.5461 North 337 388 13,400 -900 Descending Boston Center
10:00PM 42.0219 -73.5411 North 335 386 13,100 -1,140 Descending Boston Center
10:01PM 42.0931 -73.5311 North 331 381 12,300 -1,140 Descending Boston Center
10:01PM 42.1219 -73.5400 347° North 330 380 12,000 -1,020 Descending Boston Center
10:02PM 42.1697 -73.5633 340° North 281 323 11,300 -1,020 Descending Boston Center
10:02PM 42.1925 -73.5806 331° Northwest 302 348 11,000 -600 Descending Boston Center
10:03PM 42.2361 -73.6094 334° Northwest 259 298 10,700 -1,140 Descending Boston Center
10:03PM 42.2589 -73.6239 335° Northwest 275 316 9,900 -2,100 Descending Boston Center
10:04PM 42.3003 -73.6472 337° Northwest 262 302 8,600 -1,800 Descending Boston Center
10:04PM 42.3147 -73.6531 343° North 270 311 8,100 -2,280 Descending Boston Center
10:05PM 42.3706 -73.6850 337° Northwest 269 310 6,300 -2,700 Descending Boston Center
10:05PM 42.3975 -73.6997 338° Northwest 265 305 5,400 -2,220 Descending Boston Center
10:06PM 42.4369 -73.7286 332° Northwest 268 308 4,100 -1,620 Descending Boston Center
10:06PM 42.4494 -73.7317 350° North 260 299 3,800 -1,140 Descending Boston Center
10:07PM 42.5053 -73.7667 335° Northwest 262 302 3,000 -840 Descending Boston Center
10:07PM 42.5258 -73.7783 337° Northwest 250 288 3,000  Level Boston Center
10:08PM 42.5631 -73.8017 335° Northwest 203 234 3,000  Level Boston Center
10:08PM 42.5797 -73.7992 North 221 254 3,000 -540 Level Boston Center
10:09PM 42.6194 -73.8000 359° North 194 223 2,500 -600 Descending Boston Center
10:09PM 42.6278 -73.8031 345° North 202 232 2,400 -360 Descending Boston Center